GLO7693 SABE-SBFL
Flight info
| Callsign | GLO7693 |
|---|---|
| Flight time | 1h 35m |
| Altitude | 37000 |
| Route | DORVO8 DORVO UN857 ITBEB UM540 DADMO |
| Aircraft | B738/M-SDE2E3FGHIRWXY/LB1 |
Departure
| Time | 2026-04-30 13:35 |
|---|---|
| Airport | Aeroparque Jorge Newbery (SABE) |
Arrival
| Time | 2026-04-30 15:11 |
|---|---|
| Airport | Hercílio Luz International Airport (SBFL) |
| Time | Latitude | Longitude | Altitude | Speed | Heading |
|---|---|---|---|---|---|
| 2026-04-30 13:24 | -34.55676 | -58.41504 | 26 ft | 0 kts | 14° |
| 2026-04-30 13:26 | -34.55692 | -58.41509 | 26 ft | 2 kts | 14° |
| 2026-04-30 13:26 | -34.55717 | -58.41512 | 26 ft | 2 kts | 336° |
| 2026-04-30 13:27 | -34.55732 | -58.41495 | 26 ft | 1 kts | 294° |
| 2026-04-30 13:28 | -34.55734 | -58.41491 | 26 ft | 0 kts | 298° |
| 2026-04-30 13:30 | -34.55768 | -58.41605 | 26 ft | 7 kts | 220° |
| 2026-04-30 13:31 | -34.55763 | -58.41685 | 26 ft | 3 kts | 297° |
| 2026-04-30 13:31 | -34.55621 | -58.41963 | 26 ft | 14 kts | 304° |
| 2026-04-30 13:32 | -34.55529 | -58.42121 | 26 ft | 8 kts | 306° |
| 2026-04-30 13:32 | -34.55417 | -58.42302 | 26 ft | 11 kts | 306° |
| 2026-04-30 13:33 | -34.55361 | -58.42416 | 26 ft | 7 kts | 281° |
| 2026-04-30 13:33 | -34.55374 | -58.42513 | 26 ft | 5 kts | 220° |
| 2026-04-30 13:34 | -34.55411 | -58.42502 | 26 ft | 7 kts | 130° |
| 2026-04-30 13:34 | -34.56237 | -58.41016 | 26 ft | 151 kts | 123° |
| 2026-04-30 13:35 | -34.56885 | -58.39931 | 412 ft | 159 kts | 125° |
| 2026-04-30 13:35 | -34.58081 | -58.37584 | 1452 ft | 167 kts | 103° |
| 2026-04-30 13:36 | -34.57272 | -58.35059 | 2187 ft | 181 kts | 33° |
| 2026-04-30 13:36 | -34.56139 | -58.34234 | 2548 ft | 198 kts | 28° |
| 2026-04-30 13:36 | -34.53654 | -58.32225 | 3385 ft | 233 kts | 43° |
| 2026-04-30 13:37 | -34.52770 | -58.30516 | 3794 ft | 254 kts | 71° |
| 2026-04-30 13:37 | -34.53162 | -58.26123 | 4893 ft | 277 kts | 105° |
| 2026-04-30 13:38 | -34.54314 | -58.21631 | 6278 ft | 284 kts | 107° |
| 2026-04-30 13:38 | -34.54910 | -58.19335 | 6949 ft | 289 kts | 108° |
| 2026-04-30 13:38 | -34.56106 | -58.14626 | 8381 ft | 296 kts | 108° |
| 2026-04-30 13:39 | -34.57317 | -58.09778 | 9796 ft | 305 kts | 108° |
| 2026-04-30 13:39 | -34.58579 | -58.04724 | 10881 ft | 328 kts | 109° |
| 2026-04-30 13:40 | -34.59251 | -58.02032 | 11235 ft | 346 kts | 109° |
| 2026-04-30 13:40 | -34.59969 | -57.99156 | 11619 ft | 362 kts | 109° |
| 2026-04-30 13:40 | -34.60702 | -57.96209 | 11986 ft | 378 kts | 109° |
| 2026-04-30 13:40 | -34.61480 | -57.93075 | 12394 ft | 393 kts | 109° |
| 2026-04-30 13:41 | -34.62270 | -57.89890 | 13001 ft | 401 kts | 109° |
| 2026-04-30 13:41 | -34.63079 | -57.86618 | 13653 ft | 407 kts | 109° |
| 2026-04-30 13:41 | -34.63891 | -57.83336 | 14288 ft | 414 kts | 109° |
| 2026-04-30 13:41 | -34.64722 | -57.79970 | 14887 ft | 422 kts | 109° |
| 2026-04-30 13:42 | -34.65570 | -57.76532 | 15565 ft | 427 kts | 110° |
| 2026-04-30 13:42 | -34.66430 | -57.73042 | 16174 ft | 434 kts | 110° |
| 2026-04-30 13:42 | -34.68178 | -57.65929 | 17378 ft | 447 kts | 110° |
| 2026-04-30 13:43 | -34.69066 | -57.62307 | 17946 ft | 454 kts | 110° |
| 2026-04-30 13:43 | -34.69885 | -57.58601 | 18483 ft | 463 kts | 104° |
| 2026-04-30 13:43 | -34.70216 | -57.54722 | 19135 ft | 469 kts | 91° |
| 2026-04-30 13:43 | -34.69859 | -57.50745 | 19726 ft | 474 kts | 79° |
| 2026-04-30 13:44 | -34.68990 | -57.46909 | 20278 ft | 478 kts | 69° |
| 2026-04-30 13:44 | -34.67623 | -57.43192 | 20817 ft | 481 kts | 59° |
| 2026-04-30 13:44 | -34.65825 | -57.39805 | 21395 ft | 481 kts | 49° |
| 2026-04-30 13:44 | -34.63635 | -57.36744 | 21907 ft | 481 kts | 41° |
| 2026-04-30 13:45 | -34.58768 | -57.31139 | 23033 ft | 485 kts | 37° |
| 2026-04-30 13:45 | -34.56324 | -57.28311 | 23577 ft | 490 kts | 39° |
| 2026-04-30 13:45 | -34.53922 | -57.25385 | 24080 ft | 495 kts | 40° |
| 2026-04-30 13:46 | -34.51549 | -57.22336 | 24618 ft | 499 kts | 42° |
| 2026-04-30 13:46 | -34.49229 | -57.19217 | 25172 ft | 503 kts | 43° |
| 2026-04-30 13:46 | -34.46920 | -57.16013 | 25656 ft | 508 kts | 44° |
| 2026-04-30 13:46 | -34.44624 | -57.12764 | 26078 ft | 513 kts | 44° |
| 2026-04-30 13:47 | -34.42313 | -57.09452 | 26562 ft | 517 kts | 45° |
| 2026-04-30 13:47 | -34.39994 | -57.06108 | 27055 ft | 520 kts | 45° |
| 2026-04-30 13:47 | -34.37658 | -57.02733 | 27534 ft | 523 kts | 45° |
| 2026-04-30 13:47 | -34.35309 | -56.99341 | 27990 ft | 527 kts | 45° |
| 2026-04-30 13:48 | -34.32959 | -56.95953 | 28585 ft | 526 kts | 45° |
| 2026-04-30 13:48 | -34.30620 | -56.92582 | 29311 ft | 523 kts | 44° |
| 2026-04-30 13:48 | -34.28291 | -56.89233 | 29973 ft | 520 kts | 44° |
| 2026-04-30 13:48 | -34.25980 | -56.85867 | 30662 ft | 518 kts | 46° |
| 2026-04-30 13:49 | -34.23851 | -56.82294 | 31246 ft | 521 kts | 52° |
| 2026-04-30 13:49 | -34.22008 | -56.78515 | 31760 ft | 524 kts | 58° |
| 2026-04-30 13:49 | -34.20448 | -56.74514 | 32252 ft | 528 kts | 63° |
| 2026-04-30 13:49 | -34.19151 | -56.70425 | 32770 ft | 528 kts | 66° |
| 2026-04-30 13:50 | -34.17911 | -56.66263 | 33255 ft | 526 kts | 65° |
| 2026-04-30 13:50 | -34.15127 | -56.58137 | 34267 ft | 519 kts | 59° |
| 2026-04-30 13:50 | -34.13441 | -56.54303 | 34764 ft | 514 kts | 54° |
| 2026-04-30 13:51 | -34.11575 | -56.50700 | 35213 ft | 509 kts | 50° |
| 2026-04-30 13:51 | -34.09527 | -56.47223 | 35691 ft | 505 kts | 46° |
| 2026-04-30 13:51 | -34.07412 | -56.43935 | 36168 ft | 501 kts | 44° |
| 2026-04-30 13:51 | -34.05196 | -56.40678 | 36684 ft | 497 kts | 43° |
| 2026-04-30 13:52 | -34.02990 | -56.37540 | 37056 ft | 496 kts | 42° |
| 2026-04-30 13:52 | -34.00729 | -56.34381 | 37063 ft | 498 kts | 41° |
| 2026-04-30 13:52 | -33.96199 | -56.28093 | 37067 ft | 493 kts | 41° |
| 2026-04-30 13:53 | -33.91701 | -56.21855 | 37068 ft | 494 kts | 41° |
| 2026-04-30 13:53 | -33.87218 | -56.15644 | 37074 ft | 494 kts | 41° |
| 2026-04-30 13:54 | -33.82744 | -56.09433 | 37064 ft | 492 kts | 41° |
| 2026-04-30 13:54 | -33.78278 | -56.03199 | 37075 ft | 494 kts | 41° |
| 2026-04-30 13:55 | -33.73797 | -55.96940 | 37073 ft | 493 kts | 41° |
| 2026-04-30 13:55 | -33.69339 | -55.90718 | 37074 ft | 493 kts | 41° |
| 2026-04-30 13:56 | -33.64852 | -55.84475 | 37071 ft | 493 kts | 41° |
| 2026-04-30 13:56 | -33.60407 | -55.78301 | 37066 ft | 492 kts | 42° |
| 2026-04-30 13:57 | -33.55938 | -55.72109 | 37064 ft | 492 kts | 41° |
| 2026-04-30 13:57 | -33.51435 | -55.65879 | 37065 ft | 492 kts | 41° |
| 2026-04-30 13:58 | -33.44751 | -55.56643 | 37072 ft | 491 kts | 42° |
| 2026-04-30 13:59 | -33.40275 | -55.50474 | 37069 ft | 491 kts | 41° |
| 2026-04-30 13:59 | -33.35808 | -55.44330 | 37072 ft | 490 kts | 42° |
| 2026-04-30 14:00 | -33.31343 | -55.38202 | 37075 ft | 490 kts | 41° |
| 2026-04-30 14:00 | -33.24618 | -55.28985 | 37076 ft | 490 kts | 41° |
| 2026-04-30 14:01 | -33.20142 | -55.22865 | 37076 ft | 491 kts | 41° |
| 2026-04-30 14:01 | -33.15671 | -55.16766 | 37080 ft | 490 kts | 41° |
| 2026-04-30 14:02 | -33.11171 | -55.10634 | 37075 ft | 490 kts | 41° |
| 2026-04-30 14:02 | -33.06683 | -55.04530 | 37077 ft | 491 kts | 41° |
| 2026-04-30 14:03 | -33.02222 | -54.98470 | 37080 ft | 489 kts | 41° |
| 2026-04-30 14:03 | -32.97738 | -54.92387 | 37080 ft | 490 kts | 41° |
| 2026-04-30 14:04 | -32.93239 | -54.86299 | 37079 ft | 491 kts | 41° |
| 2026-04-30 14:04 | -32.88756 | -54.80238 | 37079 ft | 489 kts | 41° |
| 2026-04-30 14:05 | -32.84246 | -54.74151 | 37079 ft | 488 kts | 41° |
| 2026-04-30 14:05 | -32.79777 | -54.68138 | 37080 ft | 489 kts | 41° |
| 2026-04-30 14:06 | -32.73021 | -54.59064 | 37081 ft | 490 kts | 41° |
| 2026-04-30 14:07 | -32.66261 | -54.49990 | 37082 ft | 488 kts | 41° |
| 2026-04-30 14:08 | -32.59530 | -54.40982 | 37080 ft | 487 kts | 41° |
| 2026-04-30 14:08 | -32.52798 | -54.32003 | 37081 ft | 487 kts | 41° |
| 2026-04-30 14:09 | -32.48274 | -54.25983 | 37083 ft | 487 kts | 41° |
| 2026-04-30 14:10 | -32.41547 | -54.17037 | 37088 ft | 485 kts | 41° |
| 2026-04-30 14:10 | -32.37083 | -54.11075 | 37087 ft | 486 kts | 42° |
| 2026-04-30 14:11 | -32.32634 | -54.05052 | 37089 ft | 487 kts | 42° |
| 2026-04-30 14:11 | -32.28188 | -53.99014 | 37090 ft | 487 kts | 42° |
| 2026-04-30 14:12 | -32.23747 | -53.92995 | 37090 ft | 488 kts | 42° |
| 2026-04-30 14:12 | -32.19278 | -53.86958 | 37088 ft | 488 kts | 42° |
| 2026-04-30 14:13 | -32.14844 | -53.80980 | 37091 ft | 485 kts | 42° |
| 2026-04-30 14:13 | -32.10381 | -53.74984 | 37093 ft | 488 kts | 42° |
| 2026-04-30 14:14 | -32.05922 | -53.69011 | 37095 ft | 485 kts | 42° |
| 2026-04-30 14:14 | -32.01455 | -53.63038 | 37098 ft | 485 kts | 42° |
| 2026-04-30 14:15 | -31.97016 | -53.57113 | 37097 ft | 484 kts | 42° |
| 2026-04-30 14:15 | -31.92611 | -53.51223 | 37098 ft | 470 kts | 42° |
| 2026-04-30 14:16 | -31.88330 | -53.45513 | 37102 ft | 468 kts | 42° |
| 2026-04-30 14:16 | -31.84003 | -53.39767 | 37100 ft | 468 kts | 41° |
| 2026-04-30 14:17 | -31.79688 | -53.34049 | 37099 ft | 468 kts | 41° |
| 2026-04-30 14:17 | -31.75386 | -53.28353 | 37104 ft | 469 kts | 41° |
| 2026-04-30 14:18 | -31.71073 | -53.22645 | 37102 ft | 469 kts | 41° |
| 2026-04-30 14:18 | -31.64566 | -53.14044 | 37100 ft | 469 kts | 41° |
| 2026-04-30 14:19 | -31.58081 | -53.05485 | 37100 ft | 469 kts | 41° |
| 2026-04-30 14:20 | -31.53765 | -52.99810 | 37099 ft | 468 kts | 41° |
| 2026-04-30 14:20 | -31.47274 | -52.91290 | 37107 ft | 469 kts | 41° |
| 2026-04-30 14:21 | -31.42911 | -52.85578 | 37103 ft | 468 kts | 41° |
| 2026-04-30 14:22 | -31.36429 | -52.77097 | 37108 ft | 469 kts | 41° |
| 2026-04-30 14:22 | -31.29927 | -52.68594 | 37108 ft | 462 kts | 41° |
| 2026-04-30 14:23 | -31.21367 | -52.57442 | 37108 ft | 462 kts | 41° |
| 2026-04-30 14:24 | -31.14919 | -52.49079 | 37109 ft | 462 kts | 41° |
| 2026-04-30 14:25 | -31.06339 | -52.37961 | 37100 ft | 461 kts | 41° |
| 2026-04-30 14:26 | -30.99924 | -52.29672 | 37097 ft | 461 kts | 41° |
| 2026-04-30 14:27 | -30.93451 | -52.21355 | 37094 ft | 460 kts | 40° |
| 2026-04-30 14:27 | -30.89112 | -52.15923 | 37095 ft | 460 kts | 40° |
| 2026-04-30 14:28 | -30.82515 | -52.07737 | 37099 ft | 460 kts | 40° |
| 2026-04-30 14:28 | -30.78153 | -52.02324 | 37101 ft | 461 kts | 40° |
| 2026-04-30 14:29 | -30.70123 | -51.92362 | 37103 ft | 462 kts | 40° |
| 2026-04-30 14:31 | -30.58450 | -51.77900 | 37108 ft | 462 kts | 40° |
| 2026-04-30 14:31 | -30.51862 | -51.69760 | 37103 ft | 460 kts | 40° |
| 2026-04-30 14:32 | -30.45365 | -51.61504 | 37102 ft | 463 kts | 42° |
| 2026-04-30 14:33 | -30.41098 | -51.55899 | 37099 ft | 464 kts | 42° |
| 2026-04-30 14:33 | -30.34693 | -51.47497 | 37097 ft | 465 kts | 42° |
| 2026-04-30 14:34 | -30.30421 | -51.41920 | 37098 ft | 465 kts | 42° |
| 2026-04-30 14:34 | -30.26141 | -51.36359 | 37093 ft | 465 kts | 42° |
| 2026-04-30 14:35 | -30.19682 | -51.27995 | 37104 ft | 465 kts | 41° |
| 2026-04-30 14:36 | -30.15373 | -51.22429 | 37106 ft | 465 kts | 41° |
| 2026-04-30 14:36 | -30.11076 | -51.16878 | 37106 ft | 465 kts | 42° |
| 2026-04-30 14:37 | -30.06774 | -51.11333 | 37109 ft | 465 kts | 41° |
| 2026-04-30 14:37 | -30.02447 | -51.05769 | 37107 ft | 466 kts | 41° |
| 2026-04-30 14:38 | -29.98131 | -51.00247 | 37115 ft | 466 kts | 41° |
| 2026-04-30 14:38 | -29.93800 | -50.94713 | 37102 ft | 465 kts | 41° |
| 2026-04-30 14:39 | -29.89458 | -50.89168 | 37107 ft | 465 kts | 41° |
| 2026-04-30 14:39 | -29.85103 | -50.83617 | 37102 ft | 465 kts | 41° |
| 2026-04-30 14:40 | -29.78627 | -50.75371 | 37102 ft | 466 kts | 41° |
| 2026-04-30 14:40 | -29.74256 | -50.69815 | 37110 ft | 467 kts | 41° |
| 2026-04-30 14:41 | -29.69916 | -50.64307 | 37110 ft | 466 kts | 41° |
| 2026-04-30 14:41 | -29.65421 | -50.58946 | 37116 ft | 455 kts | 28° |
| 2026-04-30 14:42 | -29.62720 | -50.57209 | 37132 ft | 440 kts | 14° |
| 2026-04-30 14:42 | -29.59882 | -50.56002 | 37139 ft | 437 kts | 11° |
| 2026-04-30 14:42 | -29.54056 | -50.53839 | 37149 ft | 441 kts | 9° |
| 2026-04-30 14:43 | -29.48219 | -50.51311 | 37166 ft | 462 kts | 18° |
| 2026-04-30 14:43 | -29.42481 | -50.47637 | 37167 ft | 477 kts | 25° |
| 2026-04-30 14:44 | -29.37006 | -50.43311 | 37168 ft | 478 kts | 29° |
| 2026-04-30 14:44 | -29.31657 | -50.38753 | 37162 ft | 480 kts | 30° |
| 2026-04-30 14:45 | -29.26332 | -50.34141 | 37173 ft | 482 kts | 30° |
| 2026-04-30 14:45 | -29.20982 | -50.29518 | 37177 ft | 481 kts | 30° |
| 2026-04-30 14:46 | -29.15627 | -50.24920 | 37165 ft | 484 kts | 29° |
| 2026-04-30 14:46 | -29.11126 | -50.21068 | 37179 ft | 482 kts | 29° |
| 2026-04-30 14:47 | -29.04866 | -50.15729 | 37081 ft | 482 kts | 29° |
| 2026-04-30 14:47 | -29.02197 | -50.13452 | 36683 ft | 478 kts | 29° |
| 2026-04-30 14:47 | -28.99551 | -50.11195 | 36149 ft | 473 kts | 29° |
| 2026-04-30 14:48 | -28.96905 | -50.08940 | 35499 ft | 471 kts | 29° |
| 2026-04-30 14:48 | -28.94287 | -50.06716 | 34799 ft | 471 kts | 30° |
| 2026-04-30 14:48 | -28.91676 | -50.04501 | 34063 ft | 471 kts | 30° |
| 2026-04-30 14:48 | -28.89056 | -50.02282 | 33319 ft | 471 kts | 30° |
| 2026-04-30 14:49 | -28.86412 | -50.00046 | 32573 ft | 472 kts | 30° |
| 2026-04-30 14:49 | -28.83764 | -49.97809 | 31794 ft | 473 kts | 31° |
| 2026-04-30 14:49 | -28.81157 | -49.95605 | 31307 ft | 466 kts | 31° |
| 2026-04-30 14:49 | -28.78554 | -49.93400 | 30810 ft | 461 kts | 31° |
| 2026-04-30 14:50 | -28.73487 | -49.89106 | 29765 ft | 452 kts | 31° |
| 2026-04-30 14:50 | -28.70961 | -49.86969 | 29238 ft | 448 kts | 31° |
| 2026-04-30 14:51 | -28.66009 | -49.82787 | 28198 ft | 439 kts | 31° |
| 2026-04-30 14:51 | -28.63576 | -49.80734 | 27694 ft | 435 kts | 31° |
| 2026-04-30 14:51 | -28.58768 | -49.76686 | 26679 ft | 427 kts | 32° |
| 2026-04-30 14:52 | -28.56389 | -49.74683 | 26176 ft | 423 kts | 32° |
| 2026-04-30 14:52 | -28.51705 | -49.70741 | 25171 ft | 416 kts | 32° |
| 2026-04-30 14:52 | -28.49389 | -49.68789 | 24671 ft | 413 kts | 33° |
| 2026-04-30 14:53 | -28.45010 | -49.64650 | 23681 ft | 408 kts | 40° |
| 2026-04-30 14:53 | -28.42992 | -49.62433 | 23189 ft | 406 kts | 43° |
| 2026-04-30 14:54 | -28.39037 | -49.57903 | 22198 ft | 400 kts | 44° |
| 2026-04-30 14:54 | -28.35149 | -49.53439 | 21202 ft | 399 kts | 43° |
| 2026-04-30 14:55 | -28.31138 | -49.48893 | 20167 ft | 414 kts | 43° |
| 2026-04-30 14:55 | -28.29114 | -49.46611 | 19632 ft | 410 kts | 43° |
| 2026-04-30 14:55 | -28.25098 | -49.42100 | 18588 ft | 403 kts | 43° |
| 2026-04-30 14:56 | -28.21151 | -49.37676 | 17532 ft | 397 kts | 43° |
| 2026-04-30 14:56 | -28.17240 | -49.33304 | 16492 ft | 391 kts | 43° |
| 2026-04-30 14:57 | -28.15335 | -49.31176 | 15978 ft | 388 kts | 43° |
| 2026-04-30 14:57 | -28.11514 | -49.26911 | 14915 ft | 381 kts | 43° |
| 2026-04-30 14:58 | -28.07795 | -49.22765 | 13928 ft | 374 kts | 44° |
| 2026-04-30 14:58 | -28.05948 | -49.20709 | 13386 ft | 371 kts | 44° |
| 2026-04-30 14:58 | -28.02298 | -49.16645 | 12392 ft | 365 kts | 44° |
| 2026-04-30 14:59 | -27.98709 | -49.12652 | 11382 ft | 358 kts | 43° |
| 2026-04-30 15:00 | -27.93512 | -49.06881 | 10410 ft | 333 kts | 43° |
| 2026-04-30 15:00 | -27.90356 | -49.03371 | 10124 ft | 308 kts | 43° |
| 2026-04-30 15:01 | -27.87364 | -49.00046 | 9326 ft | 292 kts | 43° |
| 2026-04-30 15:01 | -27.86405 | -48.98983 | 9089 ft | 284 kts | 43° |
| 2026-04-30 15:01 | -27.83147 | -48.95379 | 8293 ft | 278 kts | 43° |
| 2026-04-30 15:02 | -27.81778 | -48.93866 | 8152 ft | 274 kts | 43° |
| 2026-04-30 15:02 | -27.80415 | -48.92361 | 8145 ft | 281 kts | 43° |
| 2026-04-30 15:03 | -27.76248 | -48.87757 | 7917 ft | 273 kts | 43° |
| 2026-04-30 15:03 | -27.73561 | -48.84787 | 7248 ft | 270 kts | 43° |
| 2026-04-30 15:04 | -27.70893 | -48.81839 | 6554 ft | 267 kts | 43° |
| 2026-04-30 15:04 | -27.67176 | -48.77740 | 5767 ft | 219 kts | 43° |
| 2026-04-30 15:05 | -27.63644 | -48.75044 | 4770 ft | 210 kts | 30° |
| 2026-04-30 15:06 | -27.61124 | -48.73342 | 3905 ft | 214 kts | 32° |
| 2026-04-30 15:06 | -27.58951 | -48.71323 | 3081 ft | 190 kts | 67° |
| 2026-04-30 15:07 | -27.59253 | -48.68778 | 2706 ft | 156 kts | 117° |
| 2026-04-30 15:07 | -27.60312 | -48.66658 | 2349 ft | 155 kts | 122° |
| 2026-04-30 15:08 | -27.61412 | -48.64624 | 1930 ft | 148 kts | 122° |
| 2026-04-30 15:08 | -27.62975 | -48.61744 | 1378 ft | 144 kts | 122° |
| 2026-04-30 15:09 | -27.64015 | -48.59825 | 1001 ft | 144 kts | 122° |
| 2026-04-30 15:09 | -27.65065 | -48.57886 | 619 ft | 146 kts | 123° |
| 2026-04-30 15:10 | -27.66129 | -48.55959 | 238 ft | 142 kts | 121° |
| 2026-04-30 15:11 | -27.67505 | -48.53373 | 32 ft | 32 kts | 123° |
| 2026-04-30 15:11 | -27.67696 | -48.53086 | 31 ft | 12 kts | 189° |
| 2026-04-30 15:12 | -27.67711 | -48.53350 | 32 ft | 16 kts | 303° |
| 2026-04-30 15:13 | -27.67557 | -48.53633 | 33 ft | 25 kts | 298° |
| 2026-04-30 15:14 | -27.67211 | -48.54273 | 34 ft | 11 kts | 302° |
| 2026-04-30 15:14 | -27.67293 | -48.54383 | 34 ft | 7 kts | 179° |
| 2026-04-30 15:16 | -27.67345 | -48.54404 | 34 ft | 0 kts | 211° |